Terminal Aerodrome Forecast
Issued by NWS

Home | Current Version | Previous Version | Text Only | Print | Product List | Glossary On
Versions: 1 2 3 4 5 6 7 8 9 10 11 12 13 14 15 16 17 18 19 20 21 22 23 24
139
FTUS42 KFFC 231733
TAFPDK
TAF
KPDK 231733Z 2318/2418 22006KT P6SM VCSH SCT009 BKN045
      TEMPO 2318/2320 4SM -SHRA BKN009
     FM232000 22006KT P6SM VCSH SCT015 BKN035
     FM240600 21004KT P6SM OVC006
     FM241200 21006KT 6SM -SHRA OVC006
      TEMPO 2414/2417 VRB15G25KT 4SM -TSRA BKN008CB=

USA.gov is the U.S. government's official web portal to all federal, state and local government web resources and services.